createdAt,value
2018-12-24T00:27:52.553Z,33.23
2018-12-24T00:27:53.126Z,33.32
2018-12-24T00:27:53.726Z,33.32
2018-12-24T00:27:54.327Z,33.23
2018-12-24T00:27:54.926Z,33.24
2018-12-24T00:27:55.525Z,33.32
2018-12-24T00:28:50.081Z,32.94
2018-12-24T00:28:50.675Z,33.04
2018-12-24T00:28:51.275Z,33.23
2018-12-24T00:28:51.875Z,32.94
2018-12-24T00:28:52.475Z,33.05
2018-12-24T00:28:53.073Z,33.05
2018-12-24T00:28:53.674Z,33.05
2018-12-24T00:29:47.732Z,33.24
2018-12-24T00:29:48.327Z,33.05
2018-12-24T00:29:48.929Z,33.05
2018-12-24T00:29:49.528Z,33.24
2018-12-24T00:29:50.126Z,33.15
2018-12-24T00:29:50.732Z,33.24
2018-12-24T00:29:51.327Z,32.94
2018-12-24T00:30:45.406Z,32.94
2018-12-24T00:30:45.981Z,32.77
2018-12-24T00:30:46.579Z,33.05
2018-12-24T00:30:47.179Z,33.34
2018-12-24T00:30:47.778Z,32.96
2018-12-24T00:30:48.380Z,33.05
2018-12-24T00:30:48.978Z,32.86
2018-12-24T00:31:43.035Z,32.37
2018-12-24T00:31:43.632Z,32.46
2018-12-24T00:31:44.232Z,32.39
2018-12-24T00:31:44.832Z,32.96
2018-12-24T00:31:45.433Z,32.67
2018-12-24T00:31:46.035Z,32.39
2018-12-24T00:31:46.632Z,32.96
2018-12-24T00:32:40.688Z,32.37
2018-12-24T00:32:41.284Z,32.96
2018-12-24T00:32:41.884Z,32.86
2018-12-24T00:32:42.485Z,32.39
2018-12-24T00:32:43.084Z,32.96
2018-12-24T00:32:43.685Z,32.86
2018-12-24T00:32:44.285Z,32.39
2018-12-24T00:33:38.338Z,32.57
2018-12-24T00:33:38.936Z,32.48
2018-12-24T00:33:39.536Z,32.48
2018-12-24T00:33:40.135Z,32.39
2018-12-24T00:33:40.735Z,32.48
2018-12-24T00:33:41.336Z,32.57
2018-12-24T00:33:41.935Z,32.48
2018-12-24T00:34:35.991Z,32.75
2018-12-24T00:34:36.588Z,32.67
2018-12-24T00:34:37.188Z,32.65
2018-12-24T00:34:37.788Z,32.67
2018-12-24T00:34:38.389Z,32.67
2018-12-24T00:34:38.987Z,32.77
2018-12-24T00:34:39.586Z,32.65
2018-12-24T00:35:33.668Z,32.56
2018-12-24T00:35:34.240Z,32.57
2018-12-24T00:35:34.839Z,32.67
2018-12-24T00:35:35.440Z,32.67
2018-12-24T00:35:36.039Z,32.57
2018-12-24T00:35:36.643Z,32.57
2018-12-24T00:35:37.239Z,32.57
2018-12-24T00:36:31.293Z,32.77
2018-12-24T00:36:31.892Z,32.20
2018-12-24T00:36:32.492Z,32.29
2018-12-24T00:36:33.092Z,32.20
2018-12-24T00:36:33.693Z,32.57
2018-12-24T00:36:34.292Z,32.20
2018-12-24T00:36:34.892Z,32.20
2018-12-24T00:37:28.951Z,32.20
2018-12-24T00:37:29.547Z,32.20
2018-12-24T00:37:30.147Z,32.29
2018-12-24T00:37:30.747Z,32.20
2018-12-24T00:37:31.349Z,32.20
2018-12-24T00:37:31.947Z,32.20
2018-12-24T00:37:32.546Z,32.29
2018-12-24T00:38:26.605Z,32.20
2018-12-24T00:38:27.197Z,32.29
2018-12-24T00:38:27.795Z,32.29
2018-12-24T00:38:28.396Z,32.20
2018-12-24T00:38:28.998Z,32.10
2018-12-24T00:38:29.595Z,32.29
2018-12-24T00:38:30.195Z,32.20
2018-12-24T00:39:24.251Z,32.10
2018-12-24T00:39:24.848Z,32.29
2018-12-24T00:39:25.448Z,32.29
2018-12-24T00:39:26.048Z,32.10
2018-12-24T00:39:26.647Z,32.20
2018-12-24T00:39:27.246Z,32.20
2018-12-24T00:39:27.849Z,32.39
2018-12-24T00:40:21.927Z,32.29
2018-12-24T00:40:22.503Z,32.67
2018-12-24T00:40:23.100Z,32.10
2018-12-24T00:40:23.702Z,32.20
2018-12-24T00:40:24.299Z,32.29
2018-12-24T00:40:24.900Z,32.20
2018-12-24T00:40:25.500Z,32.20
2018-12-24T00:41:19.559Z,32.57
2018-12-24T00:41:20.152Z,32.67
2018-12-24T00:41:20.753Z,32.67
2018-12-24T00:41:21.352Z,32.57
2018-12-24T00:41:21.950Z,32.57
2018-12-24T00:41:22.551Z,32.57
2018-12-24T00:41:23.150Z,32.67
2018-12-24T00:42:17.208Z,32.39
2018-12-24T00:42:17.804Z,32.39
2018-12-24T00:42:18.403Z,32.96
2018-12-24T00:42:19.005Z,32.39
2018-12-24T00:42:19.603Z,32.39
2018-12-24T00:42:20.205Z,32.77
2018-12-24T00:42:20.802Z,32.96
2018-12-24T00:43:14.859Z,32.96
2018-12-24T00:43:15.455Z,32.96
2018-12-24T00:43:16.057Z,32.96
2018-12-24T00:43:16.656Z,33.05
2018-12-24T00:43:17.254Z,32.96
2018-12-24T00:43:17.853Z,33.05
2018-12-24T00:43:18.454Z,33.05
2018-12-24T00:44:12.509Z,32.96
2018-12-24T00:44:13.106Z,32.96
2018-12-24T00:44:13.708Z,32.96
2018-12-24T00:44:14.308Z,33.24
2018-12-24T00:44:14.907Z,33.24
2018-12-24T00:44:15.506Z,32.96
2018-12-24T00:44:16.106Z,32.96
2018-12-24T00:45:10.188Z,32.96
2018-12-24T00:45:10.759Z,32.96
2018-12-24T00:45:11.379Z,33.34
2018-12-24T00:45:11.958Z,33.24
2018-12-24T00:45:12.564Z,33.15
2018-12-24T00:45:13.158Z,33.34
2018-12-24T00:45:13.758Z,33.44
2018-12-24T00:46:07.814Z,33.24
2018-12-24T00:46:08.413Z,32.96
2018-12-24T00:46:09.009Z,33.24
2018-12-24T00:46:09.615Z,33.24
2018-12-24T00:46:10.214Z,33.24
2018-12-24T00:46:10.813Z,33.34
2018-12-24T00:46:11.409Z,32.96
2018-12-24T00:47:05.465Z,32.77
2018-12-24T00:47:06.064Z,32.96
2018-12-24T00:47:06.664Z,32.96
2018-12-24T00:47:07.264Z,33.34
2018-12-24T00:47:07.861Z,32.96
2018-12-24T00:47:08.462Z,32.96
2018-12-24T00:47:09.062Z,32.96
2018-12-24T00:48:03.115Z,32.96
2018-12-24T00:48:03.715Z,33.15
2018-12-24T00:48:04.314Z,33.05
2018-12-24T00:48:04.916Z,33.15
2018-12-24T00:48:05.513Z,33.05
2018-12-24T00:48:06.114Z,32.96
2018-12-24T00:48:06.714Z,33.05
2018-12-24T00:49:00.772Z,32.77
2018-12-24T00:49:01.368Z,32.48
2018-12-24T00:49:01.966Z,32.86
2018-12-24T00:49:02.566Z,32.39
2018-12-24T00:49:03.164Z,32.39
2018-12-24T00:49:03.767Z,32.39
2018-12-24T00:49:04.364Z,32.77
2018-12-24T00:49:58.420Z,32.48
2018-12-24T00:49:59.022Z,32.48
2018-12-24T00:49:59.617Z,32.39
2018-12-24T00:50:00.217Z,32.39
2018-12-24T00:50:00.817Z,32.39
2018-12-24T00:50:01.417Z,32.48
2018-12-24T00:50:02.020Z,32.39
2018-12-24T00:50:56.099Z,32.48
2018-12-24T00:50:56.668Z,32.20
2018-12-24T00:50:57.270Z,32.39
2018-12-24T00:50:57.869Z,32.39
2018-12-24T00:50:58.470Z,32.39
2018-12-24T00:50:59.068Z,32.39
2018-12-24T00:50:59.673Z,32.48
2018-12-24T00:51:53.723Z,32.48
2018-12-24T00:51:54.322Z,32.39
2018-12-24T00:51:54.920Z,32.48
2018-12-24T00:51:55.522Z,32.57
2018-12-24T00:51:56.120Z,32.57
2018-12-24T00:51:56.726Z,32.39
2018-12-24T00:51:57.320Z,32.57
2018-12-24T00:52:51.375Z,32.57
2018-12-24T00:52:51.986Z,32.77
2018-12-24T00:52:52.573Z,32.57
2018-12-24T00:52:53.173Z,32.77
2018-12-24T00:52:53.773Z,32.77
2018-12-24T00:52:54.373Z,32.57
2018-12-24T00:52:54.974Z,32.77
2018-12-24T00:53:49.027Z,32.57
2018-12-24T00:53:49.623Z,32.77
2018-12-24T00:53:50.248Z,32.67
2018-12-24T00:53:50.824Z,32.77
2018-12-24T00:53:51.427Z,32.67
2018-12-24T00:53:52.026Z,32.77
2018-12-24T00:53:52.623Z,32.67
2018-12-24T00:54:46.680Z,32.39
2018-12-24T00:54:47.277Z,32.39
2018-12-24T00:54:47.877Z,32.48
2018-12-24T00:54:48.476Z,32.39
2018-12-24T00:54:49.075Z,32.48
2018-12-24T00:54:49.676Z,32.48
2018-12-24T00:54:50.278Z,32.39
2018-12-24T00:55:45.283Z,33.34
2018-12-24T00:55:45.853Z,33.34
2018-12-24T00:55:46.464Z,33.34
2018-12-24T00:55:47.048Z,33.34
2018-12-24T00:55:47.648Z,33.44
2018-12-24T00:55:48.247Z,33.24
2018-12-24T00:56:42.803Z,33.62
2018-12-24T00:56:43.400Z,33.72
2018-12-24T00:56:44.001Z,33.44
2018-12-24T00:56:44.602Z,33.72
2018-12-24T00:56:45.198Z,33.62
2018-12-24T00:56:45.798Z,33.72
2018-12-24T00:56:46.399Z,33.62
2018-12-24T00:57:40.454Z,33.53
2018-12-24T00:57:41.053Z,33.53
2018-12-24T00:57:41.651Z,33.62
2018-12-24T00:57:42.253Z,33.53
2018-12-24T00:57:42.850Z,33.62
2018-12-24T00:57:43.449Z,33.62
2018-12-24T00:57:44.051Z,33.53
2018-12-24T00:58:38.106Z,33.81
2018-12-24T00:58:38.703Z,33.62
2018-12-24T00:58:39.304Z,33.72
2018-12-24T00:58:39.902Z,33.72
2018-12-24T00:58:40.515Z,33.72
2018-12-24T00:58:41.103Z,33.72
2018-12-24T00:58:41.701Z,33.72
2018-12-24T00:59:35.756Z,34.19
2018-12-24T00:59:36.355Z,34.09
2018-12-24T00:59:36.956Z,34.09
2018-12-24T00:59:37.553Z,33.91
2018-12-24T00:59:38.153Z,34.09
2018-12-24T00:59:38.753Z,34.09
2018-12-24T00:59:39.358Z,33.91
2018-12-24T01:00:33.410Z,34.48
2018-12-24T01:00:34.006Z,34.48
2018-12-24T01:00:34.606Z,34.48
2018-12-24T01:00:35.207Z,34.38
2018-12-24T01:00:35.809Z,34.57
2018-12-24T01:00:36.409Z,34.38
2018-12-24T01:00:37.005Z,34.48
2018-12-24T01:01:31.092Z,34.38
2018-12-24T01:01:31.658Z,34.29
2018-12-24T01:01:32.258Z,34.29
2018-12-24T01:01:32.860Z,34.29
2018-12-24T01:01:33.458Z,34.57
2018-12-24T01:01:34.059Z,34.19
2018-12-24T01:01:34.658Z,34.38
2018-12-24T01:02:28.712Z,34.38
2018-12-24T01:02:29.310Z,34.29
2018-12-24T01:02:29.910Z,34.29
2018-12-24T01:02:30.510Z,34.48
2018-12-24T01:02:31.109Z,34.57
2018-12-24T01:02:31.712Z,34.38
2018-12-24T01:02:32.308Z,34.38
2018-12-24T01:03:26.364Z,34.86
2018-12-24T01:03:26.962Z,34.67
2018-12-24T01:03:27.564Z,34.67
2018-12-24T01:03:28.162Z,34.67
2018-12-24T01:03:28.760Z,34.76
2018-12-24T01:03:29.361Z,34.76
2018-12-24T01:03:29.961Z,34.67
2018-12-24T01:04:24.016Z,34.86
2018-12-24T01:04:24.615Z,34.76
2018-12-24T01:04:25.215Z,34.86
2018-12-24T01:04:25.816Z,34.76
2018-12-24T01:04:26.415Z,34.86
2018-12-24T01:04:27.015Z,34.76
2018-12-24T01:04:27.614Z,34.76
2018-12-24T01:05:21.666Z,34.57
2018-12-24T01:05:22.264Z,34.38
2018-12-24T01:05:22.869Z,34.57
2018-12-24T01:05:23.465Z,34.57
2018-12-24T01:05:24.064Z,34.48
2018-12-24T01:05:24.665Z,34.48
2018-12-24T01:05:25.264Z,34.48
2018-12-24T01:06:19.409Z,34.67
2018-12-24T01:06:19.915Z,34.76
2018-12-24T01:06:20.516Z,34.86
2018-12-24T01:06:21.115Z,34.76
2018-12-24T01:06:21.715Z,34.76
2018-12-24T01:06:22.314Z,34.86
2018-12-24T01:06:22.915Z,34.76
2018-12-24T01:07:17.114Z,35.42
2018-12-24T01:07:17.567Z,35.33
2018-12-24T01:07:18.167Z,35.33
2018-12-24T01:07:18.769Z,35.14
2018-12-24T01:07:19.366Z,35.33
2018-12-24T01:07:19.965Z,35.24
2018-12-24T01:07:20.565Z,35.24
2018-12-24T01:08:14.623Z,35.71
2018-12-24T01:08:15.220Z,35.90
2018-12-24T01:08:15.820Z,35.71
2018-12-24T01:08:16.421Z,35.71
2018-12-24T01:08:17.022Z,35.71
2018-12-24T01:08:17.619Z,35.71
2018-12-24T01:08:18.225Z,35.71
2018-12-24T01:09:12.274Z,35.81
2018-12-24T01:09:12.871Z,35.92
2018-12-24T01:09:13.471Z,36.00
2018-12-24T01:09:14.072Z,35.44
2018-12-24T01:09:14.672Z,35.90
2018-12-24T01:09:15.270Z,35.90
2018-12-24T01:09:15.913Z,35.83
2018-12-24T01:10:12.384Z,35.90
2018-12-24T01:10:12.985Z,35.71
2018-12-24T01:10:13.583Z,35.71
2018-12-24T01:11:07.578Z,36.00
2018-12-24T01:11:08.175Z,36.38
2018-12-24T01:11:08.775Z,35.81
2018-12-24T01:11:09.374Z,35.81
2018-12-24T01:11:09.975Z,35.81
2018-12-24T01:11:10.574Z,36.00
2018-12-24T01:11:11.175Z,36.28
2018-12-24T01:12:05.233Z,36.38
2018-12-24T01:12:05.827Z,36.47
2018-12-24T01:12:06.427Z,36.66
2018-12-24T01:12:07.026Z,36.38
2018-12-24T01:12:07.628Z,36.49
2018-12-24T01:12:08.225Z,36.28
2018-12-24T01:12:08.826Z,36.47
2018-12-24T01:13:02.907Z,36.57
2018-12-24T01:13:03.481Z,36.66
2018-12-24T01:13:04.077Z,36.57
2018-12-24T01:13:04.679Z,36.57
2018-12-24T01:13:05.278Z,36.66
2018-12-24T01:13:05.877Z,36.68
2018-12-24T01:13:06.478Z,36.57
2018-12-24T01:14:00.534Z,37.13
2018-12-24T01:14:01.131Z,36.85
2018-12-24T01:14:01.732Z,36.87
2018-12-24T01:14:02.330Z,36.77
2018-12-24T01:14:02.929Z,36.77
2018-12-24T01:14:03.530Z,36.85
2018-12-24T01:14:04.129Z,36.96
2018-12-24T01:14:58.183Z,36.94
2018-12-24T01:14:58.782Z,37.13
2018-12-24T01:14:59.383Z,36.94
2018-12-24T01:14:59.981Z,37.13
2018-12-24T01:15:00.583Z,37.06
2018-12-24T01:15:01.189Z,37.13
2018-12-24T01:15:01.781Z,37.13
2018-12-24T01:15:55.836Z,37.42
2018-12-24T01:15:56.434Z,37.42
2018-12-24T01:15:57.033Z,37.42
2018-12-24T01:15:57.633Z,37.33
2018-12-24T01:15:58.233Z,37.33
2018-12-24T01:15:58.833Z,37.33
2018-12-24T01:15:59.433Z,37.42
2018-12-24T01:16:53.489Z,37.90
2018-12-24T01:16:54.085Z,37.90
2018-12-24T01:16:54.688Z,37.80
2018-12-24T01:16:55.286Z,37.80
2018-12-24T01:16:55.885Z,37.80
2018-12-24T01:16:56.483Z,37.90
2018-12-24T01:16:57.085Z,37.99
2018-12-24T01:17:51.172Z,38.09
2018-12-24T01:17:51.738Z,37.44
2018-12-24T01:17:52.339Z,38.10
2018-12-24T01:17:52.936Z,37.99
2018-12-24T01:17:53.536Z,37.99
2018-12-24T01:17:54.138Z,37.92
2018-12-24T01:17:54.735Z,37.90
2018-12-24T01:18:48.816Z,37.71
2018-12-24T01:18:49.388Z,37.90
2018-12-24T01:18:49.988Z,37.90
2018-12-24T01:18:50.590Z,37.82
2018-12-24T01:18:51.190Z,37.80
2018-12-24T01:18:51.788Z,37.90
2018-12-24T01:18:52.388Z,37.71
2018-12-24T01:19:46.444Z,39.13
2018-12-24T01:19:47.041Z,38.85
2018-12-24T01:19:47.640Z,39.23
2018-12-24T01:19:48.241Z,38.94
2018-12-24T01:19:48.840Z,39.32
2018-12-24T01:19:49.440Z,39.13
2018-12-24T01:19:50.040Z,39.13
2018-12-24T01:20:44.095Z,39.79
2018-12-24T01:20:44.691Z,39.70
2018-12-24T01:20:45.292Z,39.70
2018-12-24T01:20:45.894Z,39.70
2018-12-24T01:20:46.491Z,39.79
2018-12-24T01:20:47.092Z,39.70
2018-12-24T01:20:47.692Z,39.70
2018-12-24T01:21:41.746Z,40.17
2018-12-24T01:21:42.344Z,40.17
2018-12-24T01:21:42.943Z,40.27
2018-12-24T01:21:43.544Z,39.79
2018-12-24T01:21:44.216Z,40.27
2018-12-24T01:21:44.743Z,40.27
2018-12-24T01:21:45.343Z,40.27
2018-12-24T01:22:39.398Z,40.17
2018-12-24T01:22:39.996Z,40.37
2018-12-24T01:22:40.602Z,40.27
2018-12-24T01:22:41.195Z,40.37
2018-12-24T01:22:41.795Z,40.27
2018-12-24T01:22:42.395Z,40.27
2018-12-24T01:22:42.998Z,40.27
2018-12-24T01:23:37.085Z,40.84
2018-12-24T01:23:37.647Z,40.94
2018-12-24T01:23:38.247Z,40.94
2018-12-24T01:23:38.847Z,40.65
2018-12-24T01:23:39.455Z,40.84
2018-12-24T01:23:40.046Z,40.75
2018-12-24T01:23:40.645Z,40.84
2018-12-24T01:24:34.702Z,41.13
2018-12-24T01:24:35.298Z,41.31
2018-12-24T01:24:35.898Z,41.79
2018-12-24T01:24:36.498Z,41.60
2018-12-24T01:24:37.097Z,41.31
2018-12-24T01:24:37.698Z,41.50
2018-12-24T01:24:38.299Z,41.03
2018-12-24T01:25:32.353Z,41.60
2018-12-24T01:25:32.950Z,41.79
2018-12-24T01:25:33.551Z,41.69
2018-12-24T01:25:34.150Z,41.69
2018-12-24T01:25:34.748Z,41.69
2018-12-24T01:25:35.354Z,41.79
2018-12-24T01:25:35.959Z,41.79
2018-12-24T01:26:30.005Z,41.79
2018-12-24T01:26:30.604Z,41.89
2018-12-24T01:26:31.205Z,41.98
2018-12-24T01:26:31.803Z,41.98
2018-12-24T01:26:32.404Z,42.27
2018-12-24T01:26:33.003Z,42.17
2018-12-24T01:26:33.603Z,42.08
2018-12-24T01:27:27.657Z,42.36
2018-12-24T01:27:28.255Z,42.27
2018-12-24T01:27:28.854Z,42.36
2018-12-24T01:27:29.475Z,42.27
2018-12-24T01:27:30.051Z,42.46
2018-12-24T01:27:30.651Z,42.27
2018-12-24T01:27:31.250Z,42.46
2018-12-24T01:28:25.309Z,42.55
2018-12-24T01:28:25.905Z,42.46
2018-12-24T01:28:26.508Z,42.55
2018-12-24T01:28:27.105Z,42.36
2018-12-24T01:28:27.705Z,42.46
2018-12-24T01:28:28.306Z,42.46
2018-12-24T01:28:28.905Z,42.46
2018-12-24T01:29:22.993Z,42.55
2018-12-24T01:29:23.558Z,42.55
2018-12-24T01:29:24.157Z,42.65
2018-12-24T01:29:24.758Z,42.36
2018-12-24T01:29:25.363Z,42.55
2018-12-24T01:29:25.956Z,42.65
2018-12-24T01:29:26.556Z,42.55
2018-12-24T01:30:20.612Z,42.83
2018-12-24T01:30:21.209Z,42.83
2018-12-24T01:30:21.808Z,43.12
2018-12-24T01:30:22.408Z,42.93
2018-12-24T01:30:23.011Z,43.12
2018-12-24T01:30:23.638Z,43.21
2018-12-24T01:30:24.209Z,42.93
2018-12-24T01:31:20.720Z,43.12
2018-12-24T01:31:21.318Z,43.12
2018-12-24T01:31:21.918Z,43.21
2018-12-24T01:32:15.914Z,43.12
2018-12-24T01:32:16.512Z,43.21
2018-12-24T01:32:17.113Z,43.41
2018-12-24T01:32:17.713Z,43.31
2018-12-24T01:32:18.313Z,43.31
2018-12-24T01:32:18.910Z,43.12
2018-12-24T01:32:19.512Z,43.41
2018-12-24T01:33:13.567Z,43.69
2018-12-24T01:33:14.166Z,43.60
2018-12-24T01:33:14.765Z,43.79
2018-12-24T01:33:15.363Z,43.69
2018-12-24T01:33:15.963Z,43.69
2018-12-24T01:33:16.564Z,43.69
2018-12-24T01:33:17.170Z,43.60
2018-12-24T01:34:11.219Z,44.17
2018-12-24T01:34:11.920Z,44.26
2018-12-24T01:34:12.414Z,44.26
2018-12-24T01:34:13.014Z,44.17
2018-12-24T01:34:13.615Z,44.17
2018-12-24T01:34:14.217Z,44.17
2018-12-24T01:34:14.815Z,44.17
2018-12-24T01:35:08.904Z,43.88
2018-12-24T01:35:09.468Z,44.17
2018-12-24T01:35:10.066Z,43.79
2018-12-24T01:35:10.667Z,43.88
2018-12-24T01:35:11.266Z,43.88
2018-12-24T01:35:11.870Z,43.88
2018-12-24T01:35:12.466Z,43.88
2018-12-24T01:36:06.523Z,43.60
2018-12-24T01:36:07.121Z,43.41
2018-12-24T01:36:07.718Z,43.79
2018-12-24T01:36:08.319Z,43.60
2018-12-24T01:36:08.917Z,43.69
2018-12-24T01:36:09.522Z,43.60
2018-12-24T01:36:10.119Z,43.60
2018-12-24T01:37:04.174Z,43.50
2018-12-24T01:37:04.771Z,43.60
2018-12-24T01:37:05.370Z,43.50
2018-12-24T01:37:05.973Z,43.41
2018-12-24T01:37:06.570Z,43.41
2018-12-24T01:37:07.176Z,43.50
2018-12-24T01:37:07.769Z,43.50
2018-12-24T01:38:01.827Z,43.79
2018-12-24T01:38:02.423Z,43.79
2018-12-24T01:38:03.044Z,43.88
2018-12-24T01:38:03.620Z,43.79
2018-12-24T01:38:04.221Z,43.79
2018-12-24T01:38:04.820Z,43.79
2018-12-24T01:38:05.418Z,43.79
2018-12-24T01:38:59.480Z,43.88
2018-12-24T01:39:00.073Z,44.17
2018-12-24T01:39:00.673Z,44.07
2018-12-24T01:39:01.274Z,43.88
2018-12-24T01:39:01.875Z,43.79
2018-12-24T01:39:02.478Z,44.45
2018-12-24T01:39:03.073Z,43.88
2018-12-24T01:39:57.131Z,44.26
2018-12-24T01:39:57.725Z,44.35
2018-12-24T01:39:58.326Z,44.26
2018-12-24T01:39:58.925Z,44.26
2018-12-24T01:39:59.524Z,44.35
2018-12-24T01:40:00.174Z,44.54
2018-12-24T01:40:00.725Z,44.54
2018-12-24T01:40:54.811Z,45.02
2018-12-24T01:40:55.381Z,44.83
2018-12-24T01:40:55.978Z,44.93
2018-12-24T01:40:56.578Z,44.83
2018-12-24T01:40:57.178Z,44.93
2018-12-24T01:40:57.779Z,45.02
2018-12-24T01:40:58.377Z,44.93
2018-12-24T01:41:52.436Z,44.64
2018-12-24T01:41:53.029Z,45.02
2018-12-24T01:41:53.630Z,44.83
2018-12-24T01:41:54.228Z,44.73
2018-12-24T01:41:54.829Z,44.93
2018-12-24T01:41:55.431Z,44.93
2018-12-24T01:41:56.028Z,44.83
2018-12-24T01:42:50.090Z,45.78
2018-12-24T01:42:50.680Z,45.87
2018-12-24T01:42:51.280Z,45.68
2018-12-24T01:42:51.887Z,45.87
2018-12-24T01:42:52.480Z,45.68
2018-12-24T01:42:53.080Z,45.87
2018-12-24T01:42:53.680Z,45.68
2018-12-24T01:43:47.745Z,45.68
2018-12-24T01:43:48.333Z,46.35
2018-12-24T01:43:48.934Z,46.06
2018-12-24T01:43:49.534Z,46.06
2018-12-24T01:43:50.132Z,45.97
2018-12-24T01:43:50.734Z,46.25
2018-12-24T01:43:51.334Z,46.16
2018-12-24T01:44:45.387Z,46.06
2018-12-24T01:44:45.984Z,46.06
2018-12-24T01:44:46.585Z,46.06
2018-12-24T01:44:47.183Z,46.06
2018-12-24T01:44:47.784Z,46.06
2018-12-24T01:44:48.384Z,46.25
2018-12-24T01:44:48.997Z,45.97
2018-12-24T01:45:43.039Z,46.83
2018-12-24T01:45:43.636Z,47.11
2018-12-24T01:45:44.237Z,47.11
2018-12-24T01:45:44.837Z,46.92
2018-12-24T01:45:45.435Z,46.92
2018-12-24T01:45:46.037Z,46.92
2018-12-24T01:45:46.637Z,47.11
2018-12-24T01:46:40.728Z,47.30
2018-12-24T01:46:41.289Z,47.30
2018-12-24T01:46:41.887Z,47.49
2018-12-24T01:46:42.489Z,47.30
2018-12-24T01:46:43.087Z,47.39
2018-12-24T01:46:43.687Z,47.30
2018-12-24T01:46:44.286Z,47.39
2018-12-24T01:47:38.341Z,48.06
2018-12-24T01:47:38.939Z,48.16
2018-12-24T01:47:39.539Z,47.97
2018-12-24T01:47:40.139Z,47.87
2018-12-24T01:47:40.743Z,47.97
2018-12-24T01:47:41.339Z,47.87
2018-12-24T01:47:41.940Z,47.87
2018-12-24T01:48:35.995Z,48.06
2018-12-24T01:48:36.591Z,48.16
2018-12-24T01:48:37.191Z,48.06
2018-12-24T01:48:37.791Z,47.87
2018-12-24T01:48:38.390Z,48.16
2018-12-24T01:48:38.992Z,47.97
2018-12-24T01:48:39.590Z,48.16
2018-12-24T01:49:33.649Z,48.44
2018-12-24T01:49:34.242Z,48.44
2018-12-24T01:49:34.843Z,48.35
2018-12-24T01:49:35.442Z,48.44
2018-12-24T01:49:36.042Z,48.54
2018-12-24T01:49:36.643Z,48.35
2018-12-24T01:49:37.242Z,48.54
2018-12-24T01:50:31.297Z,48.82
2018-12-24T01:50:31.894Z,48.82
2018-12-24T01:50:32.494Z,48.91
2018-12-24T01:50:33.094Z,48.91
2018-12-24T01:50:33.693Z,48.82
2018-12-24T01:50:34.294Z,48.91
2018-12-24T01:50:34.896Z,48.82
2018-12-24T01:51:28.949Z,48.82
2018-12-24T01:51:29.545Z,48.91
2018-12-24T01:51:30.145Z,48.72
2018-12-24T01:51:30.746Z,48.91
2018-12-24T01:51:31.345Z,48.72
2018-12-24T01:51:31.945Z,48.82
2018-12-24T01:51:32.545Z,48.91
2018-12-24T01:52:26.632Z,49.39
2018-12-24T01:52:27.198Z,49.39
2018-12-24T01:52:27.797Z,49.39
2018-12-24T01:52:28.396Z,49.29
2018-12-24T01:52:28.996Z,49.49
2018-12-24T01:52:29.597Z,49.49
2018-12-24T01:52:30.200Z,49.49
2018-12-24T01:53:24.256Z,49.87
2018-12-24T01:53:24.869Z,49.96
2018-12-24T01:53:25.449Z,49.77
2018-12-24T01:53:26.050Z,49.87
2018-12-24T01:53:26.649Z,49.96
2018-12-24T01:53:27.248Z,49.87
2018-12-24T01:53:27.847Z,49.96
2018-12-24T01:54:21.904Z,50.62
2018-12-24T01:54:22.501Z,50.81
2018-12-24T01:54:23.100Z,50.53
2018-12-24T01:54:23.700Z,50.53
2018-12-24T01:54:24.300Z,50.62
2018-12-24T01:54:24.900Z,51.01
2018-12-24T01:54:25.507Z,50.81
2018-12-24T01:55:19.555Z,52.05
2018-12-24T01:55:20.153Z,52.14
2018-12-24T01:55:20.753Z,51.86
2018-12-24T01:55:21.352Z,51.86
2018-12-24T01:55:21.952Z,51.67
2018-12-24T01:55:22.554Z,51.86
2018-12-24T01:55:23.252Z,51.76
2018-12-24T01:56:17.208Z,52.53
2018-12-24T01:56:17.806Z,52.72
2018-12-24T01:56:18.405Z,52.53
2018-12-24T01:56:19.004Z,52.53
2018-12-24T01:56:19.604Z,52.53
2018-12-24T01:56:20.206Z,52.62
2018-12-24T01:56:20.804Z,52.72
2018-12-24T01:57:14.860Z,54.24
2018-12-24T01:57:15.457Z,54.05
2018-12-24T01:57:16.056Z,54.33
2018-12-24T01:57:16.656Z,54.24
2018-12-24T01:57:17.256Z,54.24
2018-12-24T01:57:17.856Z,54.33
2018-12-24T01:57:18.458Z,54.33
2018-12-24T01:58:12.534Z,54.80
2018-12-24T01:58:13.108Z,54.80
2018-12-24T01:58:13.707Z,55.28
2018-12-24T01:58:14.307Z,55.28
2018-12-24T01:58:14.907Z,55.18
2018-12-24T01:58:15.511Z,55.28
2018-12-24T01:58:16.114Z,54.80
2018-12-24T01:59:10.164Z,55.57
2018-12-24T01:59:10.759Z,54.99
2018-12-24T01:59:11.359Z,54.80
2018-12-24T01:59:11.960Z,55.47
2018-12-24T01:59:12.564Z,55.57
2018-12-24T01:59:13.159Z,55.47
2018-12-24T01:59:13.758Z,55.57
2018-12-24T02:00:07.814Z,55.76
2018-12-24T02:00:08.413Z,55.94
2018-12-24T02:00:09.012Z,55.85
2018-12-24T02:00:09.610Z,55.94
2018-12-24T02:00:10.211Z,56.04
2018-12-24T02:00:10.811Z,56.04
2018-12-24T02:00:11.410Z,56.23
2018-12-24T02:01:05.465Z,56.70
2018-12-24T02:01:06.063Z,56.61
2018-12-24T02:01:06.662Z,57.09
2018-12-24T02:01:07.263Z,56.89
2018-12-24T02:01:07.863Z,57.09
2018-12-24T02:01:08.462Z,57.09
2018-12-24T02:01:09.062Z,56.89
2018-12-24T02:02:03.116Z,57.84
2018-12-24T02:02:03.714Z,57.75
2018-12-24T02:02:04.313Z,57.75
2018-12-24T02:02:04.922Z,57.75
2018-12-24T02:02:05.514Z,57.46
2018-12-24T02:02:06.114Z,57.56
2018-12-24T02:02:06.714Z,58.03
2018-12-24T02:03:00.803Z,58.80
2018-12-24T02:03:01.368Z,58.89
2018-12-24T02:03:01.966Z,58.80
2018-12-24T02:03:02.567Z,58.98
2018-12-24T02:03:03.167Z,58.89
2018-12-24T02:03:03.765Z,59.36
2018-12-24T02:03:04.365Z,59.36
2018-12-24T02:03:58.421Z,59.08
2018-12-24T02:03:59.018Z,59.36
2018-12-24T02:03:59.617Z,59.55
2018-12-24T02:04:00.217Z,59.55
2018-12-24T02:04:00.819Z,59.55
2018-12-24T02:04:01.417Z,59.46
2018-12-24T02:04:02.017Z,59.46
2018-12-24T02:04:56.072Z,59.65
2018-12-24T02:04:56.670Z,59.65
2018-12-24T02:04:57.269Z,59.27
2018-12-24T02:04:57.874Z,59.46
2018-12-24T02:04:58.470Z,59.65
2018-12-24T02:04:59.070Z,59.36
2018-12-24T02:04:59.668Z,59.36
2018-12-24T02:05:53.726Z,59.93
2018-12-24T02:05:54.321Z,59.93
2018-12-24T02:05:54.919Z,59.93
2018-12-24T02:05:55.521Z,59.65
2018-12-24T02:05:56.120Z,59.65
2018-12-24T02:05:56.720Z,59.74
2018-12-24T02:05:57.324Z,59.65
2018-12-24T02:06:51.376Z,60.79
2018-12-24T02:06:51.973Z,60.60
2018-12-24T02:06:52.573Z,60.98
2018-12-24T02:06:53.172Z,60.31
2018-12-24T02:06:53.772Z,61.26
2018-12-24T02:06:54.376Z,60.98
2018-12-24T02:06:54.974Z,61.17
2018-12-24T02:07:49.028Z,62.12
2018-12-24T02:07:49.628Z,62.12
2018-12-24T02:07:50.224Z,62.12
2018-12-24T02:07:50.823Z,61.83
2018-12-24T02:07:51.422Z,61.93
2018-12-24T02:07:52.024Z,62.21
2018-12-24T02:07:52.623Z,62.02
2018-12-24T02:08:46.706Z,62.31
2018-12-24T02:08:47.278Z,62.59
2018-12-24T02:08:47.878Z,62.69
2018-12-24T02:08:48.476Z,62.50
2018-12-24T02:08:49.077Z,62.59
2018-12-24T02:08:49.683Z,62.40
2018-12-24T02:08:50.276Z,62.59
2018-12-24T02:09:44.333Z,64.02
2018-12-24T02:09:44.927Z,64.11
2018-12-24T02:09:45.528Z,64.21
2018-12-24T02:09:46.128Z,63.92
2018-12-24T02:09:46.728Z,63.92
2018-12-24T02:09:47.328Z,64.11
2018-12-24T02:09:47.928Z,64.02
2018-12-24T02:10:41.472Z,64.59
2018-12-24T02:10:42.072Z,64.69
2018-12-24T02:10:42.670Z,64.11
2018-12-24T02:10:43.270Z,64.40
2018-12-24T02:10:43.869Z,64.40
2018-12-24T02:10:44.470Z,64.30
2018-12-24T02:10:45.071Z,64.49
2018-12-24T02:10:45.671Z,64.49
2018-12-24T02:11:39.633Z,64.78
2018-12-24T02:11:40.236Z,64.78
2018-12-24T02:11:40.832Z,64.78
2018-12-24T02:11:41.431Z,64.78
2018-12-24T02:11:42.031Z,64.78
2018-12-24T02:11:42.631Z,64.78
2018-12-24T02:11:43.231Z,64.78
2018-12-24T02:12:57.254Z,64.69
2018-12-24T02:12:57.852Z,64.49
2018-12-24T02:12:58.452Z,64.59
2018-12-24T02:12:59.051Z,64.59
2018-12-24T02:12:59.652Z,64.49
2018-12-24T02:13:00.256Z,64.49
2018-12-24T02:13:00.850Z,64.59
2018-12-24T02:13:54.941Z,64.40
2018-12-24T02:13:55.504Z,64.21
2018-12-24T02:13:56.104Z,64.02
2018-12-24T02:13:56.704Z,63.92
2018-12-24T02:13:57.305Z,63.92
2018-12-24T02:13:57.906Z,63.92
2018-12-24T02:13:58.502Z,63.92
2018-12-24T02:14:52.558Z,65.44
2018-12-24T02:14:53.157Z,64.97
2018-12-24T02:14:53.754Z,64.49
2018-12-24T02:14:54.358Z,64.59
2018-12-24T02:14:54.954Z,64.87